Estación Meteorológica Peña el Pijo (Robertgarden) [ 09/24/17 17:37:43 CEST ]

Fecha Hora Presion(HPa) Temp (°C) Humedad % Rocio (°C) Viento ( m/s) Direccion Lluvia 1Hora(mm) Lluvia 24H(mm) LLuvia Total(mm)
2017-Apr-29 01:01:33 1004.800 5.8 89 4.1       10.87 1382.02
2017-Apr-29 02:01:41 1005.000 5.8 89 4.1       9.84 1382.02
2017-Apr-29 03:01:39 1004.200 5.7 90 4.2       6.73 1382.02
2017-Apr-29 04:01:41 1003.900 5.8 90 4.3       5.18 1382.02
2017-Apr-29 05:01:44 1003.600 5.6 90 4.1     0.51 5.69 1382.54
2017-Apr-29 06:01:40 1003.500 5.6 90 4.1       5.18 1382.54
2017-Apr-29 07:01:44 1003.400 5.6 90 4.1       5.18 1382.54
2017-Apr-29 08:01:51 1003.600 5.6 90 4.1       5.18 1382.54
2017-Apr-29 09:01:50 1003.900 6.3 90 4.8     0.51 5.18 1383.06
2017-Apr-29 10:01:57 1004.000 7.3 90 5.8     0.51 5.69 1383.57
2017-Apr-29 11:01:52 1004.000 8.5 89 6.8       4.66 1383.57
2017-Apr-29 12:01:44 1004.000 10.1 88 8.2       4.66 1383.57
2017-Apr-29 13:01:47 1004.000 9.9 86 7.6       4.14 1383.57
2017-Apr-29 14:01:55 1003.800 9.6 86 7.3       3.10 1383.57
2017-Apr-29 15:02:04 1003.700 10.3 86 8.0       3.10 1383.57
2017-Apr-29 16:01:56 1003.300 11.4 82 8.4       2.59 1383.57
2017-Apr-29 17:01:52 1003.400 11.1 86 8.8     2.07 4.66 1385.65
2017-Apr-29 18:01:40 1003.000 11.1 86 8.8       4.66 1385.65
2017-Apr-29 19:02:02 1003.200 10.3 87 8.2     2.07 6.73 1387.72
2017-Apr-29 20:01:57 1003.500 9.6 88 7.7     2.07 8.28 1389.79
2017-Apr-29 21:01:48 1003.500 9.5 89 7.8     0.51 8.80 1390.31
2017-Apr-29 22:01:47 1003.900 8.4 89 6.7       8.28 1390.31
2017-Apr-29 23:01:49 1004.600 7.8 90 6.3       8.28 1390.31

Temperatura Máxima:11°    Temperatura Mínima:
Presión Máxima:1005.000 Hpa    Presión Mínima:1003.000 Hpa


Volver